McDade, Texas
Current Conditions -  °F | °C
As of 7:55 AM on Saturday 22 Nov 2014 (Local Time) from KGYB Reporting Station
Broken Clouds Broken Clouds  
Wind Chill: 63°   Ceiling: 8500
Heat Index: 63°   Visibility: 7mi
Dew Point: 61°   Wind: 7mph
Humidity: 94%   Direction: 120°ESE
Pressure: 30.05"   Gusts: NA
Location:  30.28°N, 97.24°W
Report Text: KGYB 221355Z AUTO 12006KT 7SM BKN085 17/16 A3005 RMK AO2 T01710161
Loading
Personal Weather Stations






























Interactive Weather Map New forecast layout! Learn more

10-Day Weather Forecast

Advertisements
Track Severe Weather on mobile